createdAt,value
2019-04-03T01:30:26.610Z,99.90
2019-04-03T01:33:07.668Z,99.90
2019-04-03T02:00:16.266Z,99.70
2019-04-03T02:25:10.567Z,99.90
2019-04-03T02:28:34.584Z,99.90
2019-04-03T02:38:00.987Z,99.90
2019-04-03T02:40:54.914Z,99.90
2019-04-03T02:43:55.465Z,99.90
2019-04-03T02:46:59.278Z,99.90
2019-04-03T02:49:30.661Z,99.90
2019-04-03T02:52:10.026Z,99.90
2019-04-03T02:55:09.349Z,99.90
2019-04-03T02:57:51.967Z,99.90
2019-04-03T03:43:56.249Z,99.90
2019-04-03T03:49:50.207Z,99.90
2019-04-03T03:52:43.019Z,99.90
2019-04-03T03:55:58.690Z,99.90
2019-04-03T04:38:20.143Z,99.90
2019-04-03T04:41:11.063Z,99.90
2019-04-03T04:44:14.328Z,99.90
2019-04-03T04:47:02.963Z,99.90
2019-04-03T04:49:54.867Z,99.90
2019-04-03T05:09:00.062Z,99.90
2019-04-03T05:11:29.318Z,99.90
2019-04-03T05:13:58.574Z,99.90
2019-04-03T05:16:27.848Z,99.90
2019-04-03T05:19:08.681Z,99.90
2019-04-03T05:21:28.089Z,99.90
2019-04-03T05:24:10.377Z,99.90
2019-04-03T05:31:47.721Z,99.90
2019-04-03T05:34:17.263Z,99.90
2019-04-03T05:44:41.685Z,99.90
2019-04-03T05:47:52.709Z,99.90
2019-04-03T05:50:50.691Z,99.90
2019-04-03T05:53:38.327Z,99.90
2019-04-03T05:56:44.710Z,99.90
2019-04-03T06:00:06.820Z,99.90
2019-04-03T06:05:49.756Z,99.90
2019-04-03T06:08:21.821Z,99.90
2019-04-03T06:10:57.978Z,99.90
2019-04-03T06:13:37.053Z,99.90
2019-04-03T06:16:16.510Z,99.90
2019-04-03T06:18:47.627Z,99.90
2019-04-03T06:21:20.133Z,99.90
2019-04-03T06:23:50.920Z,99.90
2019-04-03T06:26:20.337Z,99.90
2019-04-03T06:28:49.634Z,99.90
2019-04-03T06:31:20.695Z,99.90
2019-04-03T06:33:51.602Z,99.90
2019-04-03T06:36:21.248Z,99.90
2019-04-03T06:38:50.601Z,99.90
2019-04-03T06:41:20.407Z,99.90
2019-04-03T06:43:50.814Z,99.90
2019-04-03T06:46:22.353Z,99.90
2019-04-03T06:48:51.826Z,99.90
2019-04-03T06:51:21.206Z,99.90
2019-04-03T06:53:50.537Z,99.90
2019-04-03T06:56:20.346Z,99.90
2019-04-03T06:58:50.493Z,99.90
2019-04-03T07:01:21.235Z,99.90
2019-04-03T07:03:50.576Z,99.90
2019-04-03T07:06:20.199Z,99.90
2019-04-03T07:08:50.522Z,99.90
2019-04-03T07:11:23.746Z,99.40
2019-04-03T07:13:55.861Z,99.00
2019-04-03T07:16:27.006Z,99.00
2019-04-03T07:18:56.833Z,97.60
2019-04-03T07:21:27.648Z,97.60
2019-04-03T07:24:00.338Z,96.90
2019-04-03T07:26:28.950Z,96.60
2019-04-03T07:29:01.319Z,96.30
2019-04-03T07:31:32.819Z,95.60
2019-04-03T07:34:03.520Z,95.50
2019-04-03T07:36:37.279Z,94.30
2019-04-03T07:39:10.922Z,92.80
2019-04-03T07:41:41.297Z,91.30
2019-04-03T07:44:11.158Z,91.20
2019-04-03T07:46:40.612Z,90.70
2019-04-03T07:49:10.527Z,90.10
2019-04-03T07:51:39.914Z,87.30
2019-04-03T07:54:09.425Z,85.90
2019-04-03T07:56:39.083Z,85.40
2019-04-03T07:59:08.496Z,84.20
2019-04-03T08:01:41.369Z,83.70
2019-04-03T08:04:15.399Z,83.30
2019-04-03T08:06:43.707Z,81.70
2019-04-03T08:09:16.661Z,80.60
2019-04-03T08:11:46.145Z,79.80
2019-04-03T08:14:15.724Z,78.80
2019-04-03T08:16:45.893Z,76.40
2019-04-03T08:19:16.397Z,75.80
2019-04-03T08:21:48.220Z,74.90
2019-04-03T08:24:17.809Z,73.30
2019-04-03T08:26:51.630Z,72.40
2019-04-03T08:29:21.039Z,72.00
2019-04-03T08:31:50.696Z,69.60
2019-04-03T08:34:20.150Z,68.90
2019-04-03T08:36:49.816Z,69.80
2019-04-03T08:39:19.866Z,70.10
2019-04-03T08:41:49.294Z,69.30
2019-04-03T08:44:18.731Z,67.90
2019-04-03T08:46:48.180Z,68.40
2019-04-03T08:49:17.568Z,68.10
2019-04-03T08:51:47.097Z,67.70
2019-04-03T08:54:16.675Z,66.40
2019-04-03T08:56:48.721Z,66.90
2019-04-03T08:59:18.767Z,66.10
2019-04-03T09:01:48.256Z,66.90
2019-04-03T09:04:18.004Z,67.20
2019-04-03T09:06:47.545Z,66.60
2019-04-03T09:09:17.255Z,65.40
2019-04-03T09:11:46.836Z,65.70
2019-04-03T09:14:19.378Z,66.90
2019-04-03T09:16:48.754Z,67.20
2019-04-03T09:19:18.164Z,67.60
2019-04-03T09:21:50.766Z,67.90
2019-04-03T09:24:20.574Z,68.20
2019-04-03T09:26:54.544Z,67.90
2019-04-03T09:29:25.562Z,67.80
2019-04-03T09:31:58.677Z,67.20
2019-04-03T09:34:29.739Z,67.00
2019-04-03T09:36:59.172Z,67.30
2019-04-03T09:39:30.523Z,67.90
2019-04-03T09:42:02.035Z,68.10
2019-04-03T09:44:31.723Z,68.00
2019-04-03T09:47:02.946Z,67.20
2019-04-03T09:49:32.232Z,66.90
2019-04-03T09:52:01.573Z,66.60
2019-04-03T09:54:36.098Z,65.80
2019-04-03T09:57:08.693Z,63.50
2019-04-03T09:59:39.567Z,63.20
2019-04-03T10:02:10.431Z,64.20
2019-04-03T10:04:39.973Z,63.50
2019-04-03T10:07:10.571Z,63.70
2019-04-03T10:09:43.410Z,62.20
2019-04-03T10:12:12.446Z,62.20
2019-04-03T10:14:43.231Z,61.40
2019-04-03T10:17:13.216Z,60.90
2019-04-03T10:19:45.594Z,60.20
2019-04-03T10:22:15.314Z,59.90
2019-04-03T10:24:45.539Z,59.60
2019-04-03T10:27:16.178Z,59.40
2019-04-03T10:29:45.850Z,58.90
2019-04-03T10:32:15.296Z,57.70
2019-04-03T10:34:44.712Z,57.90
2019-04-03T10:37:15.128Z,57.40
2019-04-03T10:39:55.022Z,56.20
2019-04-03T10:42:24.794Z,56.80
2019-04-03T10:44:54.451Z,55.50
2019-04-03T10:47:30.183Z,55.30
2019-04-03T10:49:55.380Z,55.30
2019-04-03T10:52:26.560Z,55.00
2019-04-03T10:54:57.307Z,53.70
2019-04-03T10:57:27.181Z,53.60
2019-04-03T10:59:56.624Z,53.20
2019-04-03T11:02:26.677Z,53.50
2019-04-03T11:04:56.100Z,53.40
2019-04-03T11:07:28.869Z,52.70
2019-04-03T11:09:58.549Z,52.60
2019-04-03T11:12:29.983Z,52.20
2019-04-03T11:15:00.415Z,52.30
2019-04-03T11:17:29.642Z,51.60
2019-04-03T11:19:58.907Z,52.20
2019-04-03T11:24:59.749Z,51.80
2019-04-03T11:27:42.810Z,51.80
2019-04-03T11:30:00.854Z,51.50
2019-04-03T11:30:53.706Z,52.20
2019-04-03T11:32:35.072Z,51.00
2019-04-03T11:35:07.594Z,50.40
2019-04-03T11:37:38.748Z,50.60
2019-04-03T11:40:09.467Z,50.10
2019-04-03T11:42:40.274Z,50.70
2019-04-03T11:45:27.309Z,50.50
2019-04-03T11:47:56.884Z,51.00
2019-04-03T11:50:27.681Z,51.30
2019-04-03T11:52:59.144Z,51.10
2019-04-03T11:55:30.517Z,51.50
2019-04-03T11:58:00.850Z,51.00
2019-04-03T12:00:35.928Z,50.30
2019-04-03T12:03:07.866Z,49.60
2019-04-03T12:05:38.860Z,49.10
2019-04-03T12:08:12.432Z,49.40
2019-04-03T12:10:42.259Z,48.80
2019-04-03T12:13:13.573Z,48.20
2019-04-03T12:15:45.931Z,47.90
2019-04-03T12:18:15.685Z,48.30
2019-04-03T12:20:47.634Z,48.40
2019-04-03T12:26:15.800Z,48.50
2019-04-03T12:28:49.042Z,48.40
2019-04-03T12:31:19.756Z,48.40
2019-04-03T12:33:56.059Z,48.20
2019-04-03T12:36:20.240Z,48.30
2019-04-03T12:38:49.888Z,47.90
2019-04-03T12:41:20.369Z,47.80
2019-04-03T12:43:50.660Z,48.40
2019-04-03T12:46:41.211Z,48.10
2019-04-03T12:49:11.136Z,47.80
2019-04-03T12:51:41.183Z,47.90
2019-04-03T12:54:13.278Z,47.80
2019-04-03T12:56:46.055Z,47.80
2019-04-03T12:59:15.567Z,47.90
2019-04-03T13:01:48.254Z,48.30
2019-04-03T13:04:16.869Z,48.40
2019-04-03T13:06:51.290Z,48.70
2019-04-03T13:09:23.302Z,48.70
2019-04-03T13:11:53.265Z,48.70
2019-04-03T13:14:30.047Z,48.60
2019-04-03T13:17:06.261Z,48.20
2019-04-03T13:19:38.611Z,48.50
2019-04-03T13:22:11.442Z,48.30
2019-04-03T13:25:20.971Z,48.50
2019-04-03T13:28:26.302Z,48.40
2019-04-03T13:31:10.924Z,47.70
2019-04-03T13:33:40.383Z,47.20
2019-04-03T13:36:12.063Z,47.30
2019-04-03T13:38:44.097Z,46.30
2019-04-03T13:41:15.655Z,46.30
2019-04-03T13:43:47.405Z,46.50
2019-04-03T13:46:17.052Z,46.70
2019-04-03T13:48:51.958Z,47.10
2019-04-03T13:51:22.295Z,47.30
2019-04-03T13:53:54.573Z,47.70
2019-04-03T13:56:25.680Z,47.60
2019-04-03T13:58:55.263Z,47.50
2019-04-03T14:01:27.243Z,47.70
2019-04-03T14:04:03.721Z,47.90
2019-04-03T14:06:37.744Z,47.70
2019-04-03T14:09:15.207Z,47.10
2019-04-03T14:11:44.848Z,47.10
2019-04-03T14:14:16.119Z,45.80
2019-04-03T14:16:46.724Z,46.30
2019-04-03T14:19:19.845Z,46.30
2019-04-03T14:21:51.949Z,46.30
2019-04-03T14:24:21.814Z,46.10
2019-04-03T14:26:53.262Z,46.10
2019-04-03T14:29:22.867Z,46.40
2019-04-03T14:36:28.160Z,46.00
2019-04-03T14:39:18.375Z,46.10
2019-04-03T14:42:43.161Z,45.90
2019-04-03T14:48:47.265Z,45.30
2019-04-03T14:59:53.419Z,44.80
2019-04-03T15:02:30.499Z,44.60
2019-04-03T15:05:03.353Z,44.90
2019-04-03T15:07:35.888Z,45.00
2019-04-03T15:10:06.364Z,45.10
2019-04-03T15:12:38.512Z,45.00
2019-04-03T15:15:07.344Z,45.00
2019-04-03T15:20:12.542Z,44.40
2019-04-03T15:22:42.655Z,44.60
2019-04-03T15:25:12.876Z,45.10
2019-04-03T15:27:42.744Z,44.90
2019-04-03T15:30:12.719Z,44.80
2019-04-03T15:32:43.774Z,44.90
2019-04-03T15:35:16.389Z,44.70
2019-04-03T15:37:46.056Z,45.10
2019-04-03T15:40:21.076Z,45.00
2019-04-03T15:42:59.051Z,45.20
2019-04-03T15:45:33.168Z,45.30
2019-04-03T15:48:09.168Z,45.40
2019-04-03T15:50:39.340Z,45.60
2019-04-03T15:53:12.686Z,45.90
2019-04-03T15:55:44.690Z,46.30
2019-04-03T15:58:14.834Z,46.60
2019-04-03T16:00:44.950Z,46.40
2019-04-03T16:03:20.211Z,46.40
2019-04-03T16:05:51.224Z,46.50
2019-04-03T16:08:21.032Z,46.30
2019-04-03T16:10:51.672Z,46.10
2019-04-03T16:13:22.210Z,46.30
2019-04-03T16:15:56.284Z,46.30
2019-04-03T16:18:27.290Z,46.30
2019-04-03T16:20:58.242Z,46.40
2019-04-03T16:23:30.746Z,46.70
2019-04-03T16:26:00.452Z,47.30
2019-04-03T16:28:33.727Z,47.40
2019-04-03T16:31:02.448Z,47.70
2019-04-03T16:33:35.746Z,48.00
2019-04-03T16:36:08.706Z,48.10
2019-04-03T16:38:38.301Z,48.40
2019-04-03T16:41:10.128Z,48.40
2019-04-03T16:43:45.664Z,48.10
2019-04-03T16:46:17.877Z,47.70
2019-04-03T16:48:49.901Z,47.70
2019-04-03T16:51:21.448Z,47.80
2019-04-03T16:53:50.980Z,47.70
2019-04-03T16:56:22.222Z,47.80
2019-04-03T16:58:59.598Z,48.00
2019-04-03T17:04:25.011Z,48.50
2019-04-03T17:06:49.566Z,49.00
2019-04-03T17:09:19.779Z,49.20
2019-04-03T17:11:52.354Z,49.50
2019-04-03T17:14:25.099Z,49.80
2019-04-03T17:19:59.911Z,50.50
2019-04-03T17:22:47.576Z,50.70
2019-04-03T17:25:45.808Z,50.90
2019-04-03T17:28:10.203Z,51.30
2019-04-03T17:34:28.392Z,51.90
2019-04-03T17:37:15.258Z,52.50
2019-04-03T17:39:44.678Z,53.40
2019-04-03T17:42:14.874Z,54.00
2019-04-03T17:44:46.581Z,54.90
2019-04-03T17:47:19.457Z,53.80
2019-04-03T17:49:49.475Z,53.80
2019-04-03T17:52:55.031Z,54.20
2019-04-03T17:55:24.429Z,54.30
2019-04-03T17:57:58.851Z,54.50
2019-04-03T18:00:32.778Z,54.70
2019-04-03T18:03:03.492Z,54.90
2019-04-03T18:06:06.150Z,55.20
2019-04-03T18:08:41.800Z,55.40
2019-04-03T18:15:49.944Z,56.30
2019-04-03T18:23:43.967Z,56.50
2019-04-03T18:26:16.791Z,56.60
2019-04-03T18:28:49.744Z,56.70
2019-04-03T18:31:19.120Z,57.00
2019-04-03T18:33:51.273Z,57.20
2019-04-03T18:36:20.478Z,57.30
2019-04-03T18:38:49.785Z,57.50
2019-04-03T18:47:17.198Z,58.00
2019-04-03T18:53:01.755Z,58.30
2019-04-03T18:55:34.884Z,58.60
2019-04-03T18:58:04.334Z,59.00
2019-04-03T19:00:41.337Z,59.10
2019-04-03T19:03:13.671Z,59.20
2019-04-03T19:05:44.441Z,59.40
2019-04-03T19:08:14.069Z,59.40
2019-04-03T19:10:43.409Z,59.50
2019-04-03T19:13:14.565Z,59.70
2019-04-03T19:15:44.081Z,59.80
2019-04-03T19:18:19.656Z,59.70
2019-04-03T19:20:48.594Z,59.60
2019-04-03T19:23:22.825Z,59.80
2019-04-03T19:25:52.102Z,59.80
2019-04-03T19:28:21.462Z,59.90
2019-04-03T19:30:51.103Z,59.80
2019-04-03T19:33:20.333Z,59.90
2019-04-03T19:35:51.310Z,60.10
2019-04-03T19:38:53.304Z,60.20
2019-04-03T19:41:21.486Z,60.30
2019-04-03T19:43:52.777Z,60.40
2019-04-03T19:46:23.776Z,60.40
2019-04-03T19:48:56.489Z,60.50
2019-04-03T19:51:26.540Z,60.70
2019-04-03T19:53:59.449Z,60.80
2019-04-03T19:56:33.736Z,60.90
2019-04-03T19:59:04.889Z,60.60
2019-04-03T20:01:35.081Z,60.80
2019-04-03T20:04:10.645Z,61.00
2019-04-03T20:06:40.102Z,61.10
2019-04-03T20:09:12.310Z,61.20
2019-04-03T20:14:24.421Z,61.50
2019-04-03T20:23:19.169Z,61.90
2019-04-03T20:25:48.514Z,62.00
2019-04-03T20:28:18.056Z,62.30
2019-04-03T20:33:37.347Z,62.40
2019-04-03T20:38:53.811Z,62.90
2019-04-03T20:41:23.269Z,63.20
2019-04-03T20:43:52.653Z,63.30
2019-04-03T20:46:23.760Z,63.50
2019-04-03T20:48:53.199Z,63.70
2019-04-03T20:51:25.534Z,63.70
2019-04-03T20:53:54.934Z,63.90
2019-04-03T20:56:24.247Z,64.00
2019-04-03T20:58:56.191Z,64.00
2019-04-03T21:01:26.892Z,64.40
2019-04-03T21:03:56.177Z,64.20
2019-04-03T21:06:26.209Z,64.40
2019-04-03T21:08:58.785Z,64.10
2019-04-03T21:11:26.336Z,64.10
2019-04-03T21:13:59.252Z,64.40
2019-04-03T21:16:33.474Z,64.50
2019-04-03T21:18:59.402Z,64.30
2019-04-03T21:21:33.165Z,64.60
2019-04-03T21:24:04.682Z,64.90
2019-04-03T21:27:25.464Z,64.90
2019-04-03T21:29:54.618Z,65.20
2019-04-03T21:32:24.527Z,65.10
2019-04-03T21:34:55.343Z,65.40
2019-04-03T21:37:24.664Z,65.40
2019-04-03T21:40:18.655Z,65.50
2019-04-03T21:42:49.633Z,65.60
2019-04-03T21:45:26.184Z,66.00
2019-04-03T21:47:57.900Z,66.20
2019-04-03T21:53:43.920Z,66.40
2019-04-03T21:56:14.955Z,66.70
2019-04-03T21:58:45.813Z,66.80
2019-04-03T22:01:21.612Z,67.20
2019-04-03T22:04:10.157Z,67.50
2019-04-03T22:06:39.365Z,67.50
2019-04-03T22:09:11.556Z,67.70
2019-04-03T22:11:48.812Z,67.80
2019-04-03T22:14:18.134Z,68.10
2019-04-03T22:16:51.522Z,68.20
2019-04-03T22:19:23.216Z,68.20
2019-04-03T22:21:52.809Z,68.30
2019-04-03T22:24:24.786Z,68.60
2019-04-03T22:27:14.970Z,68.80
2019-04-03T22:29:46.490Z,69.10
2019-04-03T22:32:15.789Z,69.30
2019-04-03T22:34:47.782Z,69.40
2019-04-03T22:37:28.104Z,69.50
2019-04-03T22:40:22.574Z,69.70
2019-04-03T22:42:55.336Z,69.80
2019-04-03T22:45:35.129Z,70.20
2019-04-03T22:48:06.163Z,70.20
2019-04-03T22:50:47.194Z,70.40
2019-04-03T22:56:17.557Z,70.70
2019-04-03T22:58:53.460Z,71.00
2019-04-03T23:01:29.836Z,71.10
2019-04-03T23:04:04.860Z,71.40
2019-04-03T23:06:37.505Z,71.60
2019-04-03T23:09:11.216Z,71.80
2019-04-03T23:11:41.266Z,72.00
2019-04-03T23:14:14.982Z,72.30
2019-04-03T23:16:45.720Z,72.60
2019-04-03T23:19:42.335Z,72.90
2019-04-03T23:22:16.242Z,73.20
2019-04-03T23:24:46.815Z,73.50
2019-04-03T23:27:49.941Z,73.80
2019-04-03T23:30:19.443Z,74.10
2019-04-03T23:32:48.733Z,74.50
2019-04-03T23:35:20.382Z,74.80
2019-04-03T23:37:48.885Z,74.90
2019-04-03T23:40:18.241Z,75.20
2019-04-03T23:42:47.491Z,75.40
2019-04-03T23:45:17.733Z,75.80
2019-04-03T23:47:47.542Z,76.20
2019-04-03T23:50:16.754Z,76.60
2019-04-03T23:52:46.004Z,77.00
2019-04-03T23:55:15.129Z,77.30
2019-04-03T23:57:44.310Z,77.80
